sensor_id;sensor_type;location;lat;lon;timestamp;temperature;humidity
11965;DHT22;6042;41.326;19.826;2024-03-08T00:00:45;6.90;99.90
11965;DHT22;6042;41.326;19.826;2024-03-08T00:03:14;6.90;99.90
11965;DHT22;6042;41.326;19.826;2024-03-08T00:05:44;6.80;99.90
11965;DHT22;6042;41.326;19.826;2024-03-08T00:08:12;6.80;99.90
11965;DHT22;6042;41.326;19.826;2024-03-08T00:10:42;6.70;99.90
11965;DHT22;6042;41.326;19.826;2024-03-08T00:13:11;6.60;99.90
11965;DHT22;6042;41.326;19.826;2024-03-08T00:15:42;6.70;99.90
11965;DHT22;6042;41.326;19.826;2024-03-08T00:18:11;6.70;99.90
11965;DHT22;6042;41.326;19.826;2024-03-08T00:20:40;6.70;99.90
11965;DHT22;6042;41.326;19.826;2024-03-08T00:23:09;6.80;99.90
11965;DHT22;6042;41.326;19.826;2024-03-08T00:25:38;6.90;99.90
11965;DHT22;6042;41.326;19.826;2024-03-08T00:28:07;6.80;99.90
11965;DHT22;6042;41.326;19.826;2024-03-08T00:30:42;6.90;99.90
11965;DHT22;6042;41.326;19.826;2024-03-08T00:33:14;6.90;99.90
11965;DHT22;6042;41.326;19.826;2024-03-08T00:35:45;6.80;99.90
11965;DHT22;6042;41.326;19.826;2024-03-08T00:38:15;6.90;99.90
11965;DHT22;6042;41.326;19.826;2024-03-08T00:40:46;6.90;99.90
11965;DHT22;6042;41.326;19.826;2024-03-08T00:43:17;6.90;99.90
11965;DHT22;6042;41.326;19.826;2024-03-08T00:45:47;6.90;99.90
11965;DHT22;6042;41.326;19.826;2024-03-08T00:48:16;6.80;99.90
11965;DHT22;6042;41.326;19.826;2024-03-08T00:50:45;6.60;99.90
11965;DHT22;6042;41.326;19.826;2024-03-08T00:53:14;6.70;99.90
11965;DHT22;6042;41.326;19.826;2024-03-08T00:55:43;6.60;99.90
11965;DHT22;6042;41.326;19.826;2024-03-08T00:58:13;6.40;99.90
11965;DHT22;6042;41.326;19.826;2024-03-08T01:00:42;6.60;99.90
11965;DHT22;6042;41.326;19.826;2024-03-08T01:03:13;6.60;99.90
11965;DHT22;6042;41.326;19.826;2024-03-08T01:05:42;6.50;99.90
11965;DHT22;6042;41.326;19.826;2024-03-08T01:08:11;6.60;99.90
11965;DHT22;6042;41.326;19.826;2024-03-08T01:10:39;6.60;99.90
11965;DHT22;6042;41.326;19.826;2024-03-08T01:13:08;6.50;99.90
11965;DHT22;6042;41.326;19.826;2024-03-08T01:15:37;6.60;99.90
11965;DHT22;6042;41.326;19.826;2024-03-08T01:18:09;6.70;99.90
11965;DHT22;6042;41.326;19.826;2024-03-08T01:20:39;6.60;99.90
11965;DHT22;6042;41.326;19.826;2024-03-08T01:23:08;6.70;99.90
11965;DHT22;6042;41.326;19.826;2024-03-08T01:25:37;6.60;99.90
11965;DHT22;6042;41.326;19.826;2024-03-08T01:28:06;6.50;99.90
11965;DHT22;6042;41.326;19.826;2024-03-08T01:30:35;6.60;99.90
11965;DHT22;6042;41.326;19.826;2024-03-08T01:33:05;6.40;99.90
11965;DHT22;6042;41.326;19.826;2024-03-08T01:35:34;6.40;99.90
11965;DHT22;6042;41.326;19.826;2024-03-08T01:38:04;6.60;99.90
11965;DHT22;6042;41.326;19.826;2024-03-08T01:40:33;6.30;99.90
11965;DHT22;6042;41.326;19.826;2024-03-08T01:43:19;6.20;99.90
11965;DHT22;6042;41.326;19.826;2024-03-08T01:45:49;6.30;99.90
11965;DHT22;6042;41.326;19.826;2024-03-08T01:48:18;6.20;99.90
11965;DHT22;6042;41.326;19.826;2024-03-08T01:50:50;6.10;99.90
11965;DHT22;6042;41.326;19.826;2024-03-08T01:53:20;6.30;99.90
11965;DHT22;6042;41.326;19.826;2024-03-08T01:55:50;6.30;99.90
11965;DHT22;6042;41.326;19.826;2024-03-08T01:58:20;6.20;99.90
11965;DHT22;6042;41.326;19.826;2024-03-08T02:00:49;6.30;99.90
11965;DHT22;6042;41.326;19.826;2024-03-08T02:03:18;6.30;99.90
11965;DHT22;6042;41.326;19.826;2024-03-08T02:05:49;6.20;99.90
11965;DHT22;6042;41.326;19.826;2024-03-08T02:08:21;6.20;99.90
11965;DHT22;6042;41.326;19.826;2024-03-08T02:10:51;6.30;99.90
11965;DHT22;6042;41.326;19.826;2024-03-08T02:13:19;6.20;99.90
11965;DHT22;6042;41.326;19.826;2024-03-08T02:15:52;6.10;99.90
11965;DHT22;6042;41.326;19.826;2024-03-08T02:18:24;6.20;99.90
11965;DHT22;6042;41.326;19.826;2024-03-08T02:20:55;6.10;99.90
11965;DHT22;6042;41.326;19.826;2024-03-08T02:23:25;6.00;99.90
11965;DHT22;6042;41.326;19.826;2024-03-08T02:25:55;6.10;99.90
11965;DHT22;6042;41.326;19.826;2024-03-08T02:28:25;6.20;99.90
11965;DHT22;6042;41.326;19.826;2024-03-08T02:30:53;6.00;99.90
11965;DHT22;6042;41.326;19.826;2024-03-08T02:33:24;6.00;99.90
11965;DHT22;6042;41.326;19.826;2024-03-08T02:35:55;6.10;99.90
11965;DHT22;6042;41.326;19.826;2024-03-08T02:38:24;6.10;99.90
11965;DHT22;6042;41.326;19.826;2024-03-08T02:40:53;6.00;99.90
11965;DHT22;6042;41.326;19.826;2024-03-08T02:43:23;6.10;99.90
11965;DHT22;6042;41.326;19.826;2024-03-08T02:45:52;6.10;99.90
11965;DHT22;6042;41.326;19.826;2024-03-08T02:48:21;6.00;99.90
11965;DHT22;6042;41.326;19.826;2024-03-08T02:50:50;6.00;99.90
11965;DHT22;6042;41.326;19.826;2024-03-08T02:53:21;6.10;99.90
11965;DHT22;6042;41.326;19.826;2024-03-08T02:55:50;5.90;99.90
11965;DHT22;6042;41.326;19.826;2024-03-08T02:58:19;5.90;99.90
11965;DHT22;6042;41.326;19.826;2024-03-08T03:00:47;6.10;99.90
11965;DHT22;6042;41.326;19.826;2024-03-08T03:03:17;6.00;99.90
11965;DHT22;6042;41.326;19.826;2024-03-08T03:05:45;6.00;99.90
11965;DHT22;6042;41.326;19.826;2024-03-08T03:08:15;6.20;99.90
11965;DHT22;6042;41.326;19.826;2024-03-08T03:10:46;6.00;99.90
11965;DHT22;6042;41.326;19.826;2024-03-08T03:13:15;6.00;99.90
11965;DHT22;6042;41.326;19.826;2024-03-08T03:15:44;6.10;99.90
11965;DHT22;6042;41.326;19.826;2024-03-08T03:18:14;6.00;99.90
11965;DHT22;6042;41.326;19.826;2024-03-08T03:20:43;6.00;99.90
11965;DHT22;6042;41.326;19.826;2024-03-08T03:23:12;6.20;99.90
11965;DHT22;6042;41.326;19.826;2024-03-08T03:25:43;6.00;99.90
11965;DHT22;6042;41.326;19.826;2024-03-08T03:28:15;6.00;99.90
11965;DHT22;6042;41.326;19.826;2024-03-08T03:30:46;6.20;99.90
11965;DHT22;6042;41.326;19.826;2024-03-08T03:33:18;5.90;99.90
11965;DHT22;6042;41.326;19.826;2024-03-08T03:35:48;5.80;99.90
11965;DHT22;6042;41.326;19.826;2024-03-08T03:38:21;6.00;99.90
11965;DHT22;6042;41.326;19.826;2024-03-08T03:40:51;5.90;99.90
11965;DHT22;6042;41.326;19.826;2024-03-08T03:43:25;5.80;99.90
11965;DHT22;6042;41.326;19.826;2024-03-08T03:45:54;5.90;99.90
11965;DHT22;6042;41.326;19.826;2024-03-08T03:48:23;5.90;99.90
11965;DHT22;6042;41.326;19.826;2024-03-08T03:50:52;5.70;99.90
11965;DHT22;6042;41.326;19.826;2024-03-08T03:53:20;5.80;99.90
11965;DHT22;6042;41.326;19.826;2024-03-08T03:55:53;5.90;99.90
11965;DHT22;6042;41.326;19.826;2024-03-08T03:58:21;5.80;99.90
11965;DHT22;6042;41.326;19.826;2024-03-08T04:00:51;5.70;99.90
11965;DHT22;6042;41.326;19.826;2024-03-08T04:03:20;5.80;99.90
11965;DHT22;6042;41.326;19.826;2024-03-08T04:05:49;5.90;99.90
11965;DHT22;6042;41.326;19.826;2024-03-08T04:08:18;5.70;99.90
11965;DHT22;6042;41.326;19.826;2024-03-08T04:10:47;5.70;99.90
11965;DHT22;6042;41.326;19.826;2024-03-08T04:13:15;5.90;99.90
11965;DHT22;6042;41.326;19.826;2024-03-08T04:15:44;5.90;99.90
11965;DHT22;6042;41.326;19.826;2024-03-08T04:18:18;5.80;99.90
11965;DHT22;6042;41.326;19.826;2024-03-08T04:20:46;5.90;99.90
11965;DHT22;6042;41.326;19.826;2024-03-08T04:23:15;6.00;99.90
11965;DHT22;6042;41.326;19.826;2024-03-08T04:25:45;5.90;99.90
11965;DHT22;6042;41.326;19.826;2024-03-08T04:28:13;5.90;99.90
11965;DHT22;6042;41.326;19.826;2024-03-08T04:30:42;5.90;99.90
11965;DHT22;6042;41.326;19.826;2024-03-08T04:33:12;5.90;99.90
11965;DHT22;6042;41.326;19.826;2024-03-08T04:35:47;5.90;99.90
11965;DHT22;6042;41.326;19.826;2024-03-08T04:38:18;5.90;99.90
11965;DHT22;6042;41.326;19.826;2024-03-08T04:40:48;6.00;99.90
11965;DHT22;6042;41.326;19.826;2024-03-08T04:43:26;5.90;99.90
11965;DHT22;6042;41.326;19.826;2024-03-08T04:45:59;6.00;99.90
11965;DHT22;6042;41.326;19.826;2024-03-08T04:48:28;6.20;99.90
11965;DHT22;6042;41.326;19.826;2024-03-08T04:50:58;6.00;99.90
11965;DHT22;6042;41.326;19.826;2024-03-08T04:53:27;6.00;99.90
11965;DHT22;6042;41.326;19.826;2024-03-08T04:55:56;6.10;99.90
11965;DHT22;6042;41.326;19.826;2024-03-08T04:58:25;6.00;99.90
11965;DHT22;6042;41.326;19.826;2024-03-08T05:00:54;5.90;99.90
11965;DHT22;6042;41.326;19.826;2024-03-08T05:03:25;5.90;99.90
11965;DHT22;6042;41.326;19.826;2024-03-08T05:05:54;6.10;99.90
11965;DHT22;6042;41.326;19.826;2024-03-08T05:08:25;6.00;99.90
11965;DHT22;6042;41.326;19.826;2024-03-08T05:10:54;6.10;99.90
11965;DHT22;6042;41.326;19.826;2024-03-08T05:13:23;6.20;99.90
11965;DHT22;6042;41.326;19.826;2024-03-08T05:15:52;6.10;99.90
11965;DHT22;6042;41.326;19.826;2024-03-08T05:18:21;6.00;99.90
11965;DHT22;6042;41.326;19.826;2024-03-08T05:20:50;6.10;99.90
11965;DHT22;6042;41.326;19.826;2024-03-08T05:23:19;6.00;99.90
11965;DHT22;6042;41.326;19.826;2024-03-08T05:25:51;5.90;99.90
11965;DHT22;6042;41.326;19.826;2024-03-08T05:28:19;6.00;99.90
11965;DHT22;6042;41.326;19.826;2024-03-08T05:30:48;6.10;99.90
11965;DHT22;6042;41.326;19.826;2024-03-08T05:33:17;6.00;99.90
11965;DHT22;6042;41.326;19.826;2024-03-08T05:35:46;6.00;99.90
11965;DHT22;6042;41.326;19.826;2024-03-08T05:38:15;6.20;99.90
11965;DHT22;6042;41.326;19.826;2024-03-08T05:40:44;6.00;99.90
11965;DHT22;6042;41.326;19.826;2024-03-08T05:43:14;6.00;99.90
11965;DHT22;6042;41.326;19.826;2024-03-08T05:45:46;6.20;99.90
11965;DHT22;6042;41.326;19.826;2024-03-08T05:48:15;6.10;99.90
11965;DHT22;6042;41.326;19.826;2024-03-08T05:50:46;6.10;99.90
11965;DHT22;6042;41.326;19.826;2024-03-08T05:53:15;6.30;99.90
11965;DHT22;6042;41.326;19.826;2024-03-08T05:55:44;6.40;99.90
11965;DHT22;6042;41.326;19.826;2024-03-08T05:58:17;6.20;99.90
11965;DHT22;6042;41.326;19.826;2024-03-08T06:00:46;6.40;99.90
11965;DHT22;6042;41.326;19.826;2024-03-08T06:03:19;6.50;99.90
11965;DHT22;6042;41.326;19.826;2024-03-08T06:05:51;6.30;99.90
11965;DHT22;6042;41.326;19.826;2024-03-08T06:08:20;6.50;99.90
11965;DHT22;6042;41.326;19.826;2024-03-08T06:10:48;6.70;99.90
11965;DHT22;6042;41.326;19.826;2024-03-08T06:13:21;6.70;99.90
11965;DHT22;6042;41.326;19.826;2024-03-08T06:15:53;6.70;99.90
11965;DHT22;6042;41.326;19.826;2024-03-08T06:18:22;6.90;99.90
11965;DHT22;6042;41.326;19.826;2024-03-08T06:20:51;6.90;99.90
11965;DHT22;6042;41.326;19.826;2024-03-08T06:23:23;7.00;99.90
11965;DHT22;6042;41.326;19.826;2024-03-08T06:25:53;7.10;99.90
11965;DHT22;6042;41.326;19.826;2024-03-08T06:28:24;7.30;99.90
11965;DHT22;6042;41.326;19.826;2024-03-08T06:30:53;7.30;99.90
11965;DHT22;6042;41.326;19.826;2024-03-08T06:33:21;7.40;99.90
11965;DHT22;6042;41.326;19.826;2024-03-08T06:35:50;7.60;99.90
11965;DHT22;6042;41.326;19.826;2024-03-08T06:38:19;7.60;99.90
11965;DHT22;6042;41.326;19.826;2024-03-08T06:40:48;7.70;99.90
11965;DHT22;6042;41.326;19.826;2024-03-08T06:43:18;8.00;99.90
11965;DHT22;6042;41.326;19.826;2024-03-08T06:45:48;7.80;99.90
11965;DHT22;6042;41.326;19.826;2024-03-08T06:48:17;8.00;99.90
11965;DHT22;6042;41.326;19.826;2024-03-08T06:50:47;8.10;99.90
11965;DHT22;6042;41.326;19.826;2024-03-08T06:53:15;7.90;99.90
11965;DHT22;6042;41.326;19.826;2024-03-08T06:55:54;8.00;99.90
11965;DHT22;6042;41.326;19.826;2024-03-08T06:58:23;8.20;99.90
11965;DHT22;6042;41.326;19.826;2024-03-08T07:00:53;8.30;99.90
11965;DHT22;6042;41.326;19.826;2024-03-08T07:03:25;8.40;99.90
11965;DHT22;6042;41.326;19.826;2024-03-08T07:05:57;8.60;99.90
11965;DHT22;6042;41.326;19.826;2024-03-08T07:08:25;8.50;99.90
11965;DHT22;6042;41.326;19.826;2024-03-08T07:10:54;8.60;99.90
11965;DHT22;6042;41.326;19.826;2024-03-08T07:13:27;8.80;99.90
11965;DHT22;6042;41.326;19.826;2024-03-08T07:15:58;8.80;99.90
11965;DHT22;6042;41.326;19.826;2024-03-08T07:18:28;8.90;99.90
11965;DHT22;6042;41.326;19.826;2024-03-08T07:20:58;9.10;99.90
11965;DHT22;6042;41.326;19.826;2024-03-08T07:23:29;9.00;99.90
11965;DHT22;6042;41.326;19.826;2024-03-08T07:26:26;9.20;99.90
11965;DHT22;6042;41.326;19.826;2024-03-08T07:28:55;9.40;99.90
11965;DHT22;6042;41.326;19.826;2024-03-08T07:31:25;9.20;99.90
11965;DHT22;6042;41.326;19.826;2024-03-08T07:34:05;9.40;99.90
11965;DHT22;6042;41.326;19.826;2024-03-08T07:36:37;9.50;99.90
11965;DHT22;6042;41.326;19.826;2024-03-08T07:39:06;9.40;99.90
11965;DHT22;6042;41.326;19.826;2024-03-08T07:41:39;9.60;99.90
11965;DHT22;6042;41.326;19.826;2024-03-08T07:44:08;9.70;99.90
11965;DHT22;6042;41.326;19.826;2024-03-08T07:46:39;9.70;99.90
11965;DHT22;6042;41.326;19.826;2024-03-08T07:49:08;9.90;99.90
11965;DHT22;6042;41.326;19.826;2024-03-08T07:51:39;10.10;99.90
11965;DHT22;6042;41.326;19.826;2024-03-08T07:54:10;10.40;99.90
11965;DHT22;6042;41.326;19.826;2024-03-08T07:56:39;10.60;99.90
11965;DHT22;6042;41.326;19.826;2024-03-08T07:59:08;10.50;99.90
11965;DHT22;6042;41.326;19.826;2024-03-08T08:01:40;10.70;99.90
11965;DHT22;6042;41.326;19.826;2024-03-08T08:04:09;10.80;99.90
11965;DHT22;6042;41.326;19.826;2024-03-08T08:06:39;11.10;99.90
11965;DHT22;6042;41.326;19.826;2024-03-08T08:09:11;11.40;99.90
11965;DHT22;6042;41.326;19.826;2024-03-08T08:11:43;11.30;99.90
11965;DHT22;6042;41.326;19.826;2024-03-08T08:14:14;11.40;99.90
11965;DHT22;6042;41.326;19.826;2024-03-08T08:16:45;11.60;99.90
11965;DHT22;6042;41.326;19.826;2024-03-08T08:19:15;11.40;99.90
11965;DHT22;6042;41.326;19.826;2024-03-08T08:21:45;11.60;99.90
11965;DHT22;6042;41.326;19.826;2024-03-08T08:24:14;11.80;99.90
11965;DHT22;6042;41.326;19.826;2024-03-08T08:26:43;11.80;99.90
11965;DHT22;6042;41.326;19.826;2024-03-08T08:29:13;12.00;99.90
11965;DHT22;6042;41.326;19.826;2024-03-08T08:31:41;12.10;99.90
11965;DHT22;6042;41.326;19.826;2024-03-08T08:34:12;12.00;99.90
11965;DHT22;6042;41.326;19.826;2024-03-08T08:36:40;12.10;99.90
11965;DHT22;6042;41.326;19.826;2024-03-08T08:39:09;12.30;99.90
11965;DHT22;6042;41.326;19.826;2024-03-08T08:41:41;12.30;99.90
11965;DHT22;6042;41.326;19.826;2024-03-08T08:44:09;12.50;99.90
11965;DHT22;6042;41.326;19.826;2024-03-08T08:46:43;12.30;99.90
11965;DHT22;6042;41.326;19.826;2024-03-08T08:49:13;12.20;99.90
11965;DHT22;6042;41.326;19.826;2024-03-08T08:51:48;12.30;99.40
11965;DHT22;6042;41.326;19.826;2024-03-08T08:54:19;12.30;99.10
11965;DHT22;6042;41.326;19.826;2024-03-08T08:56:49;12.50;98.60
11965;DHT22;6042;41.326;19.826;2024-03-08T08:59:17;12.50;98.00
11965;DHT22;6042;41.326;19.826;2024-03-08T09:01:49;12.40;98.40
11965;DHT22;6042;41.326;19.826;2024-03-08T09:04:24;12.50;98.70
11965;DHT22;6042;41.326;19.826;2024-03-08T09:06:54;12.60;97.80
11965;DHT22;6042;41.326;19.826;2024-03-08T09:09:24;12.70;97.80
11965;DHT22;6042;41.326;19.826;2024-03-08T09:11:53;12.80;97.00
11965;DHT22;6042;41.326;19.826;2024-03-08T09:14:22;12.70;97.60
11965;DHT22;6042;41.326;19.826;2024-03-08T09:16:50;12.80;98.00
11965;DHT22;6042;41.326;19.826;2024-03-08T09:19:19;13.00;97.80
11965;DHT22;6042;41.326;19.826;2024-03-08T09:21:53;13.20;98.00
11965;DHT22;6042;41.326;19.826;2024-03-08T09:24:24;13.30;97.60
11965;DHT22;6042;41.326;19.826;2024-03-08T09:26:53;13.40;97.20
11965;DHT22;6042;41.326;19.826;2024-03-08T09:29:22;13.50;98.40
11965;DHT22;6042;41.326;19.826;2024-03-08T09:31:51;13.70;97.50
11965;DHT22;6042;41.326;19.826;2024-03-08T09:34:20;13.50;97.60
11965;DHT22;6042;41.326;19.826;2024-03-08T09:37:01;13.40;97.40
11965;DHT22;6042;41.326;19.826;2024-03-08T09:39:33;13.50;97.30
11965;DHT22;6042;41.326;19.826;2024-03-08T09:42:04;13.20;97.90
11965;DHT22;6042;41.326;19.826;2024-03-08T09:44:33;13.30;97.70
11965;DHT22;6042;41.326;19.826;2024-03-08T09:47:05;13.40;97.70
11965;DHT22;6042;41.326;19.826;2024-03-08T09:49:34;13.60;96.90
11965;DHT22;6042;41.326;19.826;2024-03-08T09:52:10;13.80;97.00
11965;DHT22;6042;41.326;19.826;2024-03-08T09:54:40;13.90;96.30
11965;DHT22;6042;41.326;19.826;2024-03-08T09:57:12;13.80;95.90
11965;DHT22;6042;41.326;19.826;2024-03-08T09:59:41;13.60;96.40
11965;DHT22;6042;41.326;19.826;2024-03-08T10:02:16;13.40;97.00
11965;DHT22;6042;41.326;19.826;2024-03-08T10:04:46;13.60;97.00
11965;DHT22;6042;41.326;19.826;2024-03-08T10:07:19;13.70;96.70
11965;DHT22;6042;41.326;19.826;2024-03-08T10:09:52;13.80;96.30
11965;DHT22;6042;41.326;19.826;2024-03-08T10:12:21;13.90;96.20
11965;DHT22;6042;41.326;19.826;2024-03-08T10:14:55;13.80;96.40
11965;DHT22;6042;41.326;19.826;2024-03-08T10:17:24;13.90;96.30
11965;DHT22;6042;41.326;19.826;2024-03-08T10:19:54;14.10;96.10
11965;DHT22;6042;41.326;19.826;2024-03-08T10:22:25;14.20;95.80
11965;DHT22;6042;41.326;19.826;2024-03-08T10:24:54;14.30;95.20
11965;DHT22;6042;41.326;19.826;2024-03-08T10:27:23;14.30;95.40
11965;DHT22;6042;41.326;19.826;2024-03-08T10:29:55;14.30;95.40
11965;DHT22;6042;41.326;19.826;2024-03-08T10:32:26;14.40;95.10
11965;DHT22;6042;41.326;19.826;2024-03-08T10:34:55;14.40;95.00
11965;DHT22;6042;41.326;19.826;2024-03-08T10:37:26;14.60;94.50
11965;DHT22;6042;41.326;19.826;2024-03-08T10:40:02;14.50;94.90
11965;DHT22;6042;41.326;19.826;2024-03-08T10:42:41;14.50;94.30
11965;DHT22;6042;41.326;19.826;2024-03-08T10:45:23;14.80;94.30
11965;DHT22;6042;41.326;19.826;2024-03-08T10:48:04;14.90;94.70
11965;DHT22;6042;41.326;19.826;2024-03-08T10:50:38;15.00;94.00
11965;DHT22;6042;41.326;19.826;2024-03-08T10:53:11;15.10;93.10
11965;DHT22;6042;41.326;19.826;2024-03-08T10:55:42;15.30;92.70
11965;DHT22;6042;41.326;19.826;2024-03-08T10:58:17;15.40;92.40
11965;DHT22;6042;41.326;19.826;2024-03-08T11:00:47;15.30;91.80
11965;DHT22;6042;41.326;19.826;2024-03-08T11:03:46;15.40;91.70
11965;DHT22;6042;41.326;19.826;2024-03-08T11:06:22;15.60;91.00
11965;DHT22;6042;41.326;19.826;2024-03-08T11:08:54;15.80;91.20
11965;DHT22;6042;41.326;19.826;2024-03-08T11:11:30;16.00;91.10
11965;DHT22;6042;41.326;19.826;2024-03-08T11:14:01;16.00;91.40
11965;DHT22;6042;41.326;19.826;2024-03-08T11:16:43;15.70;91.30
11965;DHT22;6042;41.326;19.826;2024-03-08T11:19:27;15.50;91.70
11965;DHT22;6042;41.326;19.826;2024-03-08T11:22:02;15.70;92.00
11965;DHT22;6042;41.326;19.826;2024-03-08T11:24:39;16.00;91.40
11965;DHT22;6042;41.326;19.826;2024-03-08T11:27:09;16.30;91.10
11965;DHT22;6042;41.326;19.826;2024-03-08T11:29:39;16.50;91.50
11965;DHT22;6042;41.326;19.826;2024-03-08T11:32:09;16.80;91.50
11965;DHT22;6042;41.326;19.826;2024-03-08T11:34:40;17.00;91.00
11965;DHT22;6042;41.326;19.826;2024-03-08T11:37:14;17.10;90.50
11965;DHT22;6042;41.326;19.826;2024-03-08T11:39:50;16.90;90.50
11965;DHT22;6042;41.326;19.826;2024-03-08T11:42:22;16.90;91.00
11965;DHT22;6042;41.326;19.826;2024-03-08T11:44:51;17.10;90.50
11965;DHT22;6042;41.326;19.826;2024-03-08T11:47:21;17.20;90.40
11965;DHT22;6042;41.326;19.826;2024-03-08T11:49:50;17.30;90.60
11965;DHT22;6042;41.326;19.826;2024-03-08T11:52:20;17.10;90.10
11965;DHT22;6042;41.326;19.826;2024-03-08T11:54:52;17.10;90.70
11965;DHT22;6042;41.326;19.826;2024-03-08T11:57:25;17.50;90.00
11965;DHT22;6042;41.326;19.826;2024-03-08T11:59:56;17.70;90.20
11965;DHT22;6042;41.326;19.826;2024-03-08T12:02:25;17.90;88.40
11965;DHT22;6042;41.326;19.826;2024-03-08T12:04:58;17.90;87.80
11965;DHT22;6042;41.326;19.826;2024-03-08T12:07:28;18.00;88.10
11965;DHT22;6042;41.326;19.826;2024-03-08T12:10:17;18.00;87.30
11965;DHT22;6042;41.326;19.826;2024-03-08T12:12:47;18.10;87.60
11965;DHT22;6042;41.326;19.826;2024-03-08T12:15:18;18.20;87.00
11965;DHT22;6042;41.326;19.826;2024-03-08T12:17:49;17.90;86.80
11965;DHT22;6042;41.326;19.826;2024-03-08T12:20:20;17.70;87.10
11965;DHT22;6042;41.326;19.826;2024-03-08T12:22:50;17.50;89.20
11965;DHT22;6042;41.326;19.826;2024-03-08T12:25:22;17.30;89.20
11965;DHT22;6042;41.326;19.826;2024-03-08T12:27:51;17.20;88.70
11965;DHT22;6042;41.326;19.826;2024-03-08T12:30:25;17.10;90.20
11965;DHT22;6042;41.326;19.826;2024-03-08T12:33:01;17.00;90.40
11965;DHT22;6042;41.326;19.826;2024-03-08T12:35:30;16.90;90.30
11965;DHT22;6042;41.326;19.826;2024-03-08T12:38:02;16.70;90.50
11965;DHT22;6042;41.326;19.826;2024-03-08T12:40:35;16.90;90.40
11965;DHT22;6042;41.326;19.826;2024-03-08T12:43:15;16.90;90.50
11965;DHT22;6042;41.326;19.826;2024-03-08T12:45:46;16.50;90.40
11965;DHT22;6042;41.326;19.826;2024-03-08T12:48:15;16.40;90.80
11965;DHT22;6042;41.326;19.826;2024-03-08T12:50:44;16.60;90.60
11965;DHT22;6042;41.326;19.826;2024-03-08T12:53:15;16.90;90.10
11965;DHT22;6042;41.326;19.826;2024-03-08T12:55:46;17.00;90.00
11965;DHT22;6042;41.326;19.826;2024-03-08T12:58:15;16.90;89.80
11965;DHT22;6042;41.326;19.826;2024-03-08T13:00:44;16.50;90.60
11965;DHT22;6042;41.326;19.826;2024-03-08T13:03:20;16.40;91.10
11965;DHT22;6042;41.326;19.826;2024-03-08T13:05:50;16.50;91.40
11965;DHT22;6042;41.326;19.826;2024-03-08T13:08:20;16.70;91.90
11965;DHT22;6042;41.326;19.826;2024-03-08T13:10:53;16.50;92.80
11965;DHT22;6042;41.326;19.826;2024-03-08T13:13:22;16.20;93.50
11965;DHT22;6042;41.326;19.826;2024-03-08T13:15:54;16.40;93.30
11965;DHT22;6042;41.326;19.826;2024-03-08T13:18:23;16.30;93.60
11965;DHT22;6042;41.326;19.826;2024-03-08T13:20:54;16.40;93.40
11965;DHT22;6042;41.326;19.826;2024-03-08T13:23:24;16.40;93.30
11965;DHT22;6042;41.326;19.826;2024-03-08T13:25:55;16.90;92.70
11965;DHT22;6042;41.326;19.826;2024-03-08T13:28:24;17.10;92.20
11965;DHT22;6042;41.326;19.826;2024-03-08T13:30:58;17.00;92.20
11965;DHT22;6042;41.326;19.826;2024-03-08T13:33:30;16.90;92.00
11965;DHT22;6042;41.326;19.826;2024-03-08T13:35:59;17.00;92.10
11965;DHT22;6042;41.326;19.826;2024-03-08T13:38:32;16.90;91.80
11965;DHT22;6042;41.326;19.826;2024-03-08T13:41:02;16.80;92.30
11965;DHT22;6042;41.326;19.826;2024-03-08T13:43:31;16.70;92.40
11965;DHT22;6042;41.326;19.826;2024-03-08T13:46:02;16.60;92.70
11965;DHT22;6042;41.326;19.826;2024-03-08T13:48:31;16.30;93.50
11965;DHT22;6042;41.326;19.826;2024-03-08T13:51:05;16.30;93.80
11965;DHT22;6042;41.326;19.826;2024-03-08T13:53:35;16.30;94.00
11965;DHT22;6042;41.326;19.826;2024-03-08T13:56:06;16.10;94.00
11965;DHT22;6042;41.326;19.826;2024-03-08T13:58:39;15.80;94.60
11965;DHT22;6042;41.326;19.826;2024-03-08T14:01:11;15.60;95.10
11965;DHT22;6042;41.326;19.826;2024-03-08T14:03:40;15.50;95.60
11965;DHT22;6042;41.326;19.826;2024-03-08T14:06:10;15.50;95.90
11965;DHT22;6042;41.326;19.826;2024-03-08T14:08:49;15.60;96.00
11965;DHT22;6042;41.326;19.826;2024-03-08T14:11:20;15.60;96.00
11965;DHT22;6042;41.326;19.826;2024-03-08T14:13:59;15.40;96.20
11965;DHT22;6042;41.326;19.826;2024-03-08T14:16:27;15.40;96.70
11965;DHT22;6042;41.326;19.826;2024-03-08T14:18:56;15.50;96.70
11965;DHT22;6042;41.326;19.826;2024-03-08T14:21:31;15.40;96.80
11965;DHT22;6042;41.326;19.826;2024-03-08T14:24:03;15.40;96.50
11965;DHT22;6042;41.326;19.826;2024-03-08T14:26:34;15.30;97.10
11965;DHT22;6042;41.326;19.826;2024-03-08T14:29:06;15.30;97.20
11965;DHT22;6042;41.326;19.826;2024-03-08T14:31:37;15.20;97.40
11965;DHT22;6042;41.326;19.826;2024-03-08T14:34:09;15.20;97.60
11965;DHT22;6042;41.326;19.826;2024-03-08T14:36:39;15.10;97.90
11965;DHT22;6042;41.326;19.826;2024-03-08T14:39:08;15.10;98.20
11965;DHT22;6042;41.326;19.826;2024-03-08T14:41:40;15.10;98.50
11965;DHT22;6042;41.326;19.826;2024-03-08T14:44:08;15.00;98.70
11965;DHT22;6042;41.326;19.826;2024-03-08T14:46:40;14.90;98.80
11965;DHT22;6042;41.326;19.826;2024-03-08T14:49:12;15.00;99.00
11965;DHT22;6042;41.326;19.826;2024-03-08T14:51:42;14.90;99.00
11965;DHT22;6042;41.326;19.826;2024-03-08T14:54:13;14.90;98.90
11965;DHT22;6042;41.326;19.826;2024-03-08T14:56:43;14.80;98.90
11965;DHT22;6042;41.326;19.826;2024-03-08T14:59:14;14.80;99.20
11965;DHT22;6042;41.326;19.826;2024-03-08T15:01:43;14.80;99.40
11965;DHT22;6042;41.326;19.826;2024-03-08T15:04:12;14.70;99.30
11965;DHT22;6042;41.326;19.826;2024-03-08T15:06:46;14.80;99.50
11965;DHT22;6042;41.326;19.826;2024-03-08T15:09:18;14.70;99.60
11965;DHT22;6042;41.326;19.826;2024-03-08T15:11:50;14.70;99.60
11965;DHT22;6042;41.326;19.826;2024-03-08T15:14:19;14.60;99.80
11965;DHT22;6042;41.326;19.826;2024-03-08T15:16:48;14.60;99.90
11965;DHT22;6042;41.326;19.826;2024-03-08T15:19:20;14.60;99.90
11965;DHT22;6042;41.326;19.826;2024-03-08T15:21:54;14.60;99.90
11965;DHT22;6042;41.326;19.826;2024-03-08T15:24:23;14.40;99.90
11965;DHT22;6042;41.326;19.826;2024-03-08T15:27:00;14.40;99.90
11965;DHT22;6042;41.326;19.826;2024-03-08T15:29:30;14.40;99.90
11965;DHT22;6042;41.326;19.826;2024-03-08T15:32:04;14.50;99.90
11965;DHT22;6042;41.326;19.826;2024-03-08T15:34:35;14.50;99.90
11965;DHT22;6042;41.326;19.826;2024-03-08T15:37:05;14.40;99.90
11965;DHT22;6042;41.326;19.826;2024-03-08T15:39:34;14.50;99.90
11965;DHT22;6042;41.326;19.826;2024-03-08T15:42:13;14.40;99.90
11965;DHT22;6042;41.326;19.826;2024-03-08T15:44:43;14.40;99.90
11965;DHT22;6042;41.326;19.826;2024-03-08T15:47:16;14.40;99.90
11965;DHT22;6042;41.326;19.826;2024-03-08T15:49:46;14.40;99.90
11965;DHT22;6042;41.326;19.826;2024-03-08T15:52:17;14.40;99.90
11965;DHT22;6042;41.326;19.826;2024-03-08T15:54:46;14.50;99.90
11965;DHT22;6042;41.326;19.826;2024-03-08T15:57:18;14.40;99.90
11965;DHT22;6042;41.326;19.826;2024-03-08T15:59:51;14.40;99.90